Seville, Spain

9:07 PM CET on February 26, 2017 (GMT +0100)
Parque Alcosa | | Change Station

Elev 69 ft 37.41 °N, 5.93 °W | Updated 2 minutes ago

Partly Cloudy
Partly Cloudy
58.9 °F
Feels Like 58.9 °F
N
2.0
Wind Variable Wind from WSW
Gusts 2.0 mph

Today
High -- | Low -- °F
--% Chance of Precip.
Yesterday
High -- | Low -- °F
Precip. -- in
Pressure 30.15 in
Visibility 5.6 miles
Clouds Few 4000 ft
Dew Point 52 °F
Humidity 79%
Rainfall 0.00 in
Snow Depth Not available.
7:58 AM 7:14 PM
New Moon, 0% visible
METAR LEMO 262000Z 26004KT 9000 FEW040 12/10 Q1021 NOSIG
Pressure 30.15 in
Visibility 5.6 miles
Clouds Few 4000 ft
Dew Point 52 °F
Humidity 79%
Rainfall 0.00 in
Snow Depth Not available.
7:58 AM 7:14 PM
New Moon, 0% visible
METAR LEMO 262000Z 26004KT 9000 FEW040 12/10 Q1021 NOSIG

Get Your Daily Forecast Email!

Thanks for signing up!

Be on the lookout for a verification email in your inbox.

You'll start receiving the daily forecast at 8 AM.

×

10-Day Weather Forecast

×

Almanac

Astronomy

Feb. 26, 2017 Rise Set
Actual Time
Civil Twilight
Nautical Twilight
Astronomical Twilight
Moon
Length of Visible Light
Length of Day
Tomorrow will be .
, % of the Moon is Illuminated

Today's Extremes

Country Highs Country Lows

Community

WunderPhotos

Upload Photos

1,962,540 photos uploaded!

WunderBlog® & News

Nearby

Air Quality

  Air Quality AQ Index Pollutant
Not available.

Snow Depth

Station Depth Elevation

Earthquake Activity

City Distance Mag. Time & Date
Minimum magnitude displayed is 2.5.

Coastal Water Temperatures

Place Temperature

Stations

Nearby Weather Stations

Station Location Temp. Windchill Dew Point Humidity Wind Precip. Elev Updated Type